Weather at Logan Reserve Airport

Public forecast

Using degrees Celsius for public forecast. Weather courtesy of forecast.io.

Closest aviation weather report (METAR) to Logan Reserve Airport

Closest report is Brisbane International Airport, 19.5 nm (36.1 km) N. Retrieved 2020/10/30 16:30 UTC (8 minutes ago):

YBBN 301630Z 36017KT 9999 FEW019 BKN160 23/20 Q1008 NOSIG

Closest aviation forecast (TAF) to Logan Reserve Airport

Closest forecast is Brisbane International Airport, 19.5 nm (36.1 km) N. Retrieved 2020/10/30 12:41 UTC (4 hours ago):

TAF YBBN 301101Z 3012/3118 35012KT 9999 FEW012 SCT020 FM301600 35010KT 9999 BKN025 FM310000 01018KT 9999 -SHRA SCT040 FM311200 33008KT 9999 NSW FEW012 TEMPO 3012/3016 9999 BKN010 PROB40 TEMPO 3105/3111 VRB30G50KT 1000 TSRAGR BKN012 SCT040CB